Atwood, Illinois
Current Conditions -  °F | °C
As of 7:53 AM on Thursday 23 Oct 2014 (Local Time) from KCMI Reporting Station
Haze Haze  
Wind Chill:   Ceiling: Unl
Heat Index:   Visibility: 4mi
Dew Point:   Wind: 6mph
Humidity: 96%   Direction: 120°ESE
Pressure: 30.23"   Gusts: NA
Location:  39.8°N, 88.46°W
Report Text: KCMI 231253Z 12005KT 4SM BR CLR 03/02 A3023 RMK AO2 SLP244 T00280022 $
Loading
Personal Weather Stations






























Interactive Weather Map
Tropical Storm Tracking
New forecast layout! Learn more

10-Day Weather Forecast

Advertisements
Track Severe Weather on mobile